Time;durP1;ratioP1;P1;durP2;ratioP2;P2;SDS_P1;SDS_P2;PMS_P1;PMS_P2;Temp;Humidity;BMP_temperature;BMP_pressure;BME280_temperature;BME280_humidity;BME280_pressure;Samples;Min_cycle;Max_cycle;Signal;HPM_P1;HPM_P2
2023/12/08 00:01:15;;;;;;;13.23;9.17;;;;;;;;;;5048702;28;20401;-63
2023/12/08 00:03:40;;;;;;;13.10;9.20;;;;;;;;;;5049898;28;20443;-64
2023/12/08 00:06:07;;;;;;;14.67;9.40;;;;;;;;;;5049481;28;20397;-64
2023/12/08 00:08:32;;;;;;;12.10;8.75;;;;;;;;;;5049052;28;20417;-64
2023/12/08 00:10:57;;;;;;;11.98;8.80;;;;;;;;;;5049923;28;20953;-64
2023/12/08 00:13:23;;;;;;;12.17;9.27;;;;;;;;;;5049065;28;20385;-63
2023/12/08 00:15:48;;;;;;;12.73;8.97;;;;;;;;;;5049116;28;20401;-63
2023/12/08 00:18:13;;;;;;;11.90;8.43;;;;;;;;;;5049325;28;20769;-63
2023/12/08 00:20:38;;;;;;;17.10;11.27;;;;;;;;;;5032107;28;20402;-63
2023/12/08 00:23:04;;;;;;;17.03;11.20;;;;;;;;;;5048777;28;20745;-64
2023/12/08 00:25:29;;;;;;;13.88;9.30;;;;;;;;;;5049963;28;20385;-63
2023/12/08 00:27:55;;;;;;;12.30;9.20;;;;;;;;;;5049908;28;20401;-64
2023/12/08 00:30:20;;;;;;;12.77;9.13;;;;;;;;;;5048499;28;20390;-63
2023/12/08 00:32:46;;;;;;;13.13;9.00;;;;;;;;;;5049779;28;20406;-63
2023/12/08 00:35:11;;;;;;;13.27;9.30;;;;;;;;;;5049311;28;20436;-63
2023/12/08 00:37:36;;;;;;;12.63;8.65;;;;;;;;;;5048802;28;20389;-63
2023/12/08 00:40:03;;;;;;;13.43;9.80;;;;;;;;;;5049435;28;20421;-63
2023/12/08 00:42:28;;;;;;;13.65;9.65;;;;;;;;;;5049732;28;20756;-63
2023/12/08 00:44:53;;;;;;;12.40;9.30;;;;;;;;;;5048812;28;20411;-63
2023/12/08 00:47:18;;;;;;;12.40;9.07;;;;;;;;;;5049208;28;20413;-63
2023/12/08 00:49:44;;;;;;;13.17;8.80;;;;;;;;;;5049515;28;20422;-63
2023/12/08 00:52:09;;;;;;;14.00;9.50;;;;;;;;;;5048488;28;20455;-63
2023/12/08 00:54:34;;;;;;;11.73;8.93;;;;;;;;;;5049719;28;20396;-63
2023/12/08 00:57:00;;;;;;;13.37;9.23;;;;;;;;;;5048918;28;20451;-63
2023/12/08 00:59:25;;;;;;;12.47;9.07;;;;;;;;;;5049046;28;20385;-63
2023/12/08 01:01:50;;;;;;;12.57;9.10;;;;;;;;;;5049578;28;20401;-63
2023/12/08 01:04:15;;;;;;;13.03;9.77;;;;;;;;;;5048186;28;20452;-63
2023/12/08 01:06:41;;;;;;;11.57;9.03;;;;;;;;;;5049261;28;20425;-64
2023/12/08 01:09:06;;;;;;;12.13;8.97;;;;;;;;;;5048759;28;20413;-63
2023/12/08 01:11:32;;;;;;;14.23;9.07;;;;;;;;;;5048731;28;20753;-64
2023/12/08 01:13:57;;;;;;;12.00;9.40;;;;;;;;;;5049513;28;20423;-64
2023/12/08 01:16:22;;;;;;;12.33;9.10;;;;;;;;;;5048856;28;20490;-63
2023/12/08 01:18:48;;;;;;;12.93;8.85;;;;;;;;;;5048587;28;20485;-63
2023/12/08 01:21:13;;;;;;;11.60;8.50;;;;;;;;;;5048749;28;20393;-63
2023/12/08 01:23:38;;;;;;;11.50;8.40;;;;;;;;;;5049288;28;20386;-63
2023/12/08 01:26:08;;;;;;;12.37;9.33;;;;;;;;;;5050513;28;20612;-64
2023/12/08 01:28:34;;;;;;;13.05;8.98;;;;;;;;;;5052922;28;20408;-63
2023/12/08 01:30:59;;;;;;;11.27;8.27;;;;;;;;;;5052937;28;20393;-63
2023/12/08 01:33:25;;;;;;;13.73;8.77;;;;;;;;;;5051519;28;20390;-63
2023/12/08 01:35:53;;;;;;;12.87;9.30;;;;;;;;;;5052667;28;20405;-63
2023/12/08 01:38:19;;;;;;;12.27;9.17;;;;;;;;;;5052332;28;20410;-63
2023/12/08 01:40:44;;;;;;;11.40;8.37;;;;;;;;;;5052109;28;20405;-63
2023/12/08 01:43:11;;;;;;;11.90;8.57;;;;;;;;;;5052282;28;20871;-63
2023/12/08 01:45:37;;;;;;;11.85;8.73;;;;;;;;;;5052630;28;20410;-63
2023/12/08 01:48:02;;;;;;;12.15;8.98;;;;;;;;;;5051268;28;20760;-63
2023/12/08 01:50:27;;;;;;;12.00;8.90;;;;;;;;;;5034587;28;20390;-63
2023/12/08 01:52:53;;;;;;;11.47;8.93;;;;;;;;;;5052795;28;20911;-63
2023/12/08 01:55:18;;;;;;;12.80;9.20;;;;;;;;;;5051480;28;20401;-63
2023/12/08 01:57:43;;;;;;;12.37;9.00;;;;;;;;;;5052680;28;20488;-63
2023/12/08 02:00:09;;;;;;;12.77;8.50;;;;;;;;;;5051980;28;20400;-64
2023/12/08 02:02:34;;;;;;;12.38;9.13;;;;;;;;;;5051263;28;20455;-63
2023/12/08 02:05:00;;;;;;;12.47;8.63;;;;;;;;;;5052330;28;20787;-63
2023/12/08 02:07:25;;;;;;;11.68;8.50;;;;;;;;;;5050742;28;20404;-64
2023/12/08 02:09:51;;;;;;;13.40;8.57;;;;;;;;;;5052111;28;20419;-63
2023/12/08 02:12:16;;;;;;;12.98;8.68;;;;;;;;;;5051861;28;20410;-63
2023/12/08 02:14:41;;;;;;;11.93;8.90;;;;;;;;;;5051507;28;20958;-63
2023/12/08 02:17:11;;;;;;;11.87;8.27;;;;;;;;;;5051536;28;20389;-63
2023/12/08 02:19:37;;;;;;;12.07;8.82;;;;;;;;;;5033986;28;20429;-63
2023/12/08 02:22:02;;;;;;;12.33;9.00;;;;;;;;;;5050651;28;20440;-63
2023/12/08 02:24:27;;;;;;;10.93;8.50;;;;;;;;;;5034262;28;20918;-63
2023/12/08 02:26:53;;;;;;;11.47;8.63;;;;;;;;;;5051951;28;20904;-63
2023/12/08 02:29:18;;;;;;;11.23;8.13;;;;;;;;;;5050789;28;20938;-63
2023/12/08 02:31:45;;;;;;;12.30;8.82;;;;;;;;;;5036230;28;20411;-64
2023/12/08 02:34:10;;;;;;;11.15;8.77;;;;;;;;;;5047286;28;20406;-64
2023/12/08 02:36:36;;;;;;;11.60;8.50;;;;;;;;;;5030448;28;20390;-64
2023/12/08 02:39:01;;;;;;;11.90;8.87;;;;;;;;;;5018562;28;20467;-64
2023/12/08 02:41:26;;;;;;;11.80;8.60;;;;;;;;;;5016700;28;20411;-63
2023/12/08 02:43:51;;;;;;;11.73;9.10;;;;;;;;;;5013354;28;20403;-63
2023/12/08 02:46:17;;;;;;;12.40;9.00;;;;;;;;;;5018403;28;20395;-64
2023/12/08 02:48:42;;;;;;;10.00;8.10;;;;;;;;;;5028486;28;20769;-64
2023/12/08 02:51:07;;;;;;;12.30;9.23;;;;;;;;;;5040176;28;20416;-64
2023/12/08 02:53:33;;;;;;;11.80;8.33;;;;;;;;;;5041120;28;20451;-64
2023/12/08 02:55:58;;;;;;;12.00;8.53;;;;;;;;;;5041700;28;20400;-64
2023/12/08 02:58:23;;;;;;;11.43;9.03;;;;;;;;;;5039928;28;20394;-65
2023/12/08 03:00:48;;;;;;;11.17;8.37;;;;;;;;;;5033708;28;20399;-64
2023/12/08 03:03:14;;;;;;;12.20;9.13;;;;;;;;;;5013669;28;20407;-64
2023/12/08 03:05:39;;;;;;;13.32;9.15;;;;;;;;;;5013523;28;20443;-64
2023/12/08 03:08:04;;;;;;;11.73;9.37;;;;;;;;;;5014525;28;20411;-65
2023/12/08 03:10:30;;;;;;;13.00;9.50;;;;;;;;;;5022444;28;20399;-65
2023/12/08 03:12:55;;;;;;;12.73;9.17;;;;;;;;;;5020188;28;20458;-65
2023/12/08 03:15:20;;;;;;;12.88;9.15;;;;;;;;;;5021349;28;20562;-65
2023/12/08 03:17:45;;;;;;;13.17;9.73;;;;;;;;;;5020581;28;21056;-65
2023/12/08 03:20:11;;;;;;;13.00;9.60;;;;;;;;;;5036736;28;20412;-65
2023/12/08 03:22:36;;;;;;;13.73;10.27;;;;;;;;;;5041006;28;20864;-65
2023/12/08 03:25:02;;;;;;;12.47;9.87;;;;;;;;;;5032923;28;20995;-66
2023/12/08 03:27:27;;;;;;;12.57;9.57;;;;;;;;;;5032919;28;20405;-66
2023/12/08 03:29:52;;;;;;;12.37;9.93;;;;;;;;;;5032902;28;20405;-65
2023/12/08 03:32:17;;;;;;;14.13;11.00;;;;;;;;;;5038549;28;20429;-65
2023/12/08 03:34:43;;;;;;;14.47;10.90;;;;;;;;;;5040318;28;20389;-65
2023/12/08 03:37:08;;;;;;;14.97;11.00;;;;;;;;;;5026547;28;20407;-65
2023/12/08 03:39:33;;;;;;;13.23;10.10;;;;;;;;;;5024347;28;20484;-65
2023/12/08 03:41:58;;;;;;;14.95;11.75;;;;;;;;;;5040786;28;20464;-65
2023/12/08 03:44:24;;;;;;;14.87;11.33;;;;;;;;;;5030714;28;20968;-65
2023/12/08 03:46:49;;;;;;;15.10;11.50;;;;;;;;;;5016058;28;20429;-65
2023/12/08 03:49:14;;;;;;;16.33;12.57;;;;;;;;;;5011467;28;20434;-65
2023/12/08 03:51:40;;;;;;;17.37;12.33;;;;;;;;;;5013040;28;20802;-64
2023/12/08 03:54:05;;;;;;;14.47;11.60;;;;;;;;;;5015734;28;20438;-65
2023/12/08 03:56:30;;;;;;;15.83;12.00;;;;;;;;;;5040274;28;20405;-64
2023/12/08 03:58:56;;;;;;;16.45;11.93;;;;;;;;;;5040358;28;20406;-64
2023/12/08 04:01:21;;;;;;;14.87;11.53;;;;;;;;;;5028754;28;20395;-64
2023/12/08 04:03:47;;;;;;;15.60;12.10;;;;;;;;;;5020670;28;20391;-64
2023/12/08 04:06:12;;;;;;;15.02;11.05;;;;;;;;;;5019936;28;20988;-64
2023/12/08 04:08:37;;;;;;;15.93;11.80;;;;;;;;;;5017239;28;20421;-64
2023/12/08 04:11:03;;;;;;;15.53;11.67;;;;;;;;;;5013169;28;20406;-64
2023/12/08 04:13:28;;;;;;;16.30;11.82;;;;;;;;;;5032085;28;20635;-64
2023/12/08 04:15:53;;;;;;;14.27;11.33;;;;;;;;;;5033554;28;20467;-64
2023/12/08 04:18:19;;;;;;;16.00;11.63;;;;;;;;;;5039503;28;20942;-64
2023/12/08 04:20:44;;;;;;;16.10;11.77;;;;;;;;;;5039060;28;20402;-64
2023/12/08 04:23:10;;;;;;;16.73;11.80;;;;;;;;;;5038876;28;20455;-64
2023/12/08 04:25:35;;;;;;;15.87;12.07;;;;;;;;;;5035136;28;20961;-63
2023/12/08 04:28:00;;;;;;;15.83;11.93;;;;;;;;;;5018971;28;20403;-64
2023/12/08 04:30:26;;;;;;;16.30;11.90;;;;;;;;;;5039311;28;20397;-64
2023/12/08 04:32:51;;;;;;;15.43;12.20;;;;;;;;;;5033326;28;20870;-64
2023/12/08 04:35:16;;;;;;;15.07;11.73;;;;;;;;;;5031037;28;20550;-64
2023/12/08 04:37:42;;;;;;;15.83;12.27;;;;;;;;;;5012824;28;20403;-64
2023/12/08 04:40:07;;;;;;;16.97;12.30;;;;;;;;;;5027430;28;20476;-64
2023/12/08 04:42:34;;;;;;;17.30;13.27;;;;;;;;;;5039078;28;20441;-64
2023/12/08 04:44:59;;;;;;;17.65;12.88;;;;;;;;;;5026292;28;20403;-64
2023/12/08 04:47:24;;;;;;;15.55;12.07;;;;;;;;;;5019662;28;20418;-64
2023/12/08 04:49:50;;;;;;;15.57;12.60;;;;;;;;;;5019494;28;20405;-64
2023/12/08 04:52:15;;;;;;;16.63;11.87;;;;;;;;;;5019675;28;20879;-64
2023/12/08 04:54:40;;;;;;;14.87;12.10;;;;;;;;;;5015724;28;20971;-64
2023/12/08 04:57:05;;;;;;;15.00;12.02;;;;;;;;;;5011422;28;20506;-64
2023/12/08 04:59:31;;;;;;;15.97;12.20;;;;;;;;;;5011915;28;20739;-64
2023/12/08 05:01:56;;;;;;;16.20;12.50;;;;;;;;;;5020262;28;20481;-64
2023/12/08 05:04:21;;;;;;;15.80;11.70;;;;;;;;;;5022796;28;20493;-64
2023/12/08 05:06:47;;;;;;;14.10;10.80;;;;;;;;;;5023823;28;20984;-64
2023/12/08 05:09:12;;;;;;;14.87;11.47;;;;;;;;;;5026546;28;20432;-64
2023/12/08 05:11:37;;;;;;;15.80;11.63;;;;;;;;;;5024475;28;20513;-64
2023/12/08 05:14:02;;;;;;;17.43;12.80;;;;;;;;;;5023152;28;20395;-64
2023/12/08 05:16:28;;;;;;;17.83;13.23;;;;;;;;;;5021662;28;20904;-64
2023/12/08 05:18:53;;;;;;;16.93;12.60;;;;;;;;;;5016830;28;20436;-64
2023/12/08 05:21:19;;;;;;;16.80;12.70;;;;;;;;;;5035336;28;20788;-64
2023/12/08 05:23:44;;;;;;;17.30;12.80;;;;;;;;;;5035185;28;20472;-64
2023/12/08 05:26:09;;;;;;;17.17;13.30;;;;;;;;;;5022180;28;20407;-64
2023/12/08 05:28:35;;;;;;;18.27;13.27;;;;;;;;;;5023415;28;20453;-64
2023/12/08 05:31:00;;;;;;;17.77;13.25;;;;;;;;;;5023086;28;20867;-64
2023/12/08 05:33:25;;;;;;;17.83;13.37;;;;;;;;;;5022578;28;20411;-64
2023/12/08 05:35:51;;;;;;;18.30;13.60;;;;;;;;;;5023355;28;20413;-64
2023/12/08 05:38:16;;;;;;;19.70;14.27;;;;;;;;;;5022227;28;20984;-64
2023/12/08 05:40:41;;;;;;;18.93;14.20;;;;;;;;;;5020712;28;20410;-63
2023/12/08 05:43:07;;;;;;;21.37;14.10;;;;;;;;;;5014794;28;20406;-64
2023/12/08 05:45:32;;;;;;;19.67;13.93;;;;;;;;;;5014944;28;20841;-64
2023/12/08 05:47:57;;;;;;;18.42;13.88;;;;;;;;;;5022061;28;20407;-64
2023/12/08 05:50:22;;;;;;;20.00;14.03;;;;;;;;;;5022470;28;20442;-64
2023/12/08 05:52:48;;;;;;;19.73;14.53;;;;;;;;;;5022503;28;20902;-63
2023/12/08 05:55:13;;;;;;;18.63;13.70;;;;;;;;;;5022527;28;20398;-64
2023/12/08 05:57:38;;;;;;;16.55;13.05;;;;;;;;;;5022818;28;20491;-64
2023/12/08 06:00:06;;;;;;;19.83;14.37;;;;;;;;;;5021771;28;20410;-64
2023/12/08 06:02:31;;;;;;;17.33;13.85;;;;;;;;;;5018056;28;20407;-64
2023/12/08 06:04:57;;;;;;;17.47;13.87;;;;;;;;;;5015039;28;20480;-64
2023/12/08 06:07:22;;;;;;;18.67;13.80;;;;;;;;;;5013840;28;20418;-64
2023/12/08 06:09:47;;;;;;;18.27;14.00;;;;;;;;;;5020225;28;20521;-64
2023/12/08 06:12:12;;;;;;;18.73;14.10;;;;;;;;;;5020965;28;21018;-64
2023/12/08 06:14:38;;;;;;;18.70;14.10;;;;;;;;;;5025013;28;20847;-63
2023/12/08 06:17:03;;;;;;;18.80;14.40;;;;;;;;;;5041710;28;20484;-64
2023/12/08 06:19:28;;;;;;;18.73;13.53;;;;;;;;;;5042497;28;20451;-63
2023/12/08 06:21:54;;;;;;;18.30;13.57;;;;;;;;;;5041435;28;20757;-64
2023/12/08 06:24:19;;;;;;;17.37;13.47;;;;;;;;;;5039517;28;20769;-64
2023/12/08 06:26:44;;;;;;;18.53;13.50;;;;;;;;;;5034818;28;20832;-64
2023/12/08 06:29:09;;;;;;;18.60;14.07;;;;;;;;;;5033146;28;20417;-63
2023/12/08 06:31:35;;;;;;;16.52;13.60;;;;;;;;;;5035970;28;20916;-64
2023/12/08 06:34:00;;;;;;;19.17;14.03;;;;;;;;;;5041825;28;20397;-64
2023/12/08 06:36:26;;;;;;;19.07;14.17;;;;;;;;;;5033159;28;20813;-64
2023/12/08 06:38:51;;;;;;;18.95;13.75;;;;;;;;;;5041053;28;20397;-63
2023/12/08 06:41:17;;;;;;;19.17;14.80;;;;;;;;;;5022903;28;20414;-63
2023/12/08 06:43:42;;;;;;;18.67;14.73;;;;;;;;;;5021197;28;20399;-63
2023/12/08 06:46:07;;;;;;;17.07;13.40;;;;;;;;;;5021618;28;20414;-64
2023/12/08 06:48:33;;;;;;;17.33;13.37;;;;;;;;;;5015225;28;20403;-64
2023/12/08 06:50:58;;;;;;;17.90;13.93;;;;;;;;;;5032624;28;20425;-64
2023/12/08 06:53:23;;;;;;;17.80;14.23;;;;;;;;;;5033143;28;20425;-63
2023/12/08 06:55:49;;;;;;;18.03;14.00;;;;;;;;;;5039837;28;20820;-63
2023/12/08 06:58:14;;;;;;;17.37;13.57;;;;;;;;;;5040666;28;20779;-64
2023/12/08 07:00:39;;;;;;;17.80;13.37;;;;;;;;;;5036851;28;20395;-63
2023/12/08 07:03:05;;;;;;;20.20;14.63;;;;;;;;;;5037785;28;21051;-63
2023/12/08 07:05:30;;;;;;;19.87;15.13;;;;;;;;;;5022059;28;20970;-63
2023/12/08 07:07:56;;;;;;;19.25;14.80;;;;;;;;;;5040316;28;20406;-64
2023/12/08 07:10:21;;;;;;;18.80;14.47;;;;;;;;;;5022472;28;20530;-64
2023/12/08 07:12:46;;;;;;;17.83;14.90;;;;;;;;;;5013711;28;20759;-63
2023/12/08 07:15:12;;;;;;;19.20;14.37;;;;;;;;;;5013274;28;20845;-63
2023/12/08 07:17:37;;;;;;;18.27;14.30;;;;;;;;;;5017127;28;20387;-64
2023/12/08 07:20:06;;;;;;;19.55;14.82;;;;;;;;;;5020998;28;20787;-64
2023/12/08 07:22:32;;;;;;;17.98;13.80;;;;;;;;;;5040747;28;20408;-64
2023/12/08 07:24:57;;;;;;;18.65;15.20;;;;;;;;;;5040156;28;20442;-63
2023/12/08 07:27:23;;;;;;;19.10;15.00;;;;;;;;;;5049498;28;20436;-63
2023/12/08 07:29:48;;;;;;;21.50;16.10;;;;;;;;;;5050249;28;20493;-64
2023/12/08 07:32:13;;;;;;;19.10;15.50;;;;;;;;;;5049410;28;20405;-63
2023/12/08 07:34:38;;;;;;;17.67;13.97;;;;;;;;;;5050853;28;20900;-62
2023/12/08 07:37:04;;;;;;;20.73;15.73;;;;;;;;;;5050130;28;20406;-63
2023/12/08 07:39:29;;;;;;;21.10;16.23;;;;;;;;;;5045631;28;20394;-63
2023/12/08 07:41:54;;;;;;;18.80;14.57;;;;;;;;;;5054580;28;20401;-63
2023/12/08 07:44:20;;;;;;;21.63;15.50;;;;;;;;;;5049560;28;20386;-63
2023/12/08 07:46:45;;;;;;;20.67;15.83;;;;;;;;;;5048777;28;20892;-65
2023/12/08 07:49:10;;;;;;;20.07;15.70;;;;;;;;;;5049149;28;20479;-63
2023/12/08 07:51:36;;;;;;;21.17;15.73;;;;;;;;;;5053899;28;20495;-63
2023/12/08 07:54:03;;;;;;;21.13;16.65;;;;;;;;;;5045921;28;20492;-64
2023/12/08 07:56:28;;;;;;;18.65;14.27;;;;;;;;;;5049847;28;20413;-63
2023/12/08 07:58:53;;;;;;;20.70;15.80;;;;;;;;;;5031861;28;20931;-63
2023/12/08 08:01:19;;;;;;;20.83;16.20;;;;;;;;;;5048289;28;20774;-63
2023/12/08 08:03:44;;;;;;;21.55;16.13;;;;;;;;;;5032100;28;20389;-63
2023/12/08 08:06:10;;;;;;;20.33;14.93;;;;;;;;;;5048451;28;20397;-64
2023/12/08 08:08:35;;;;;;;21.03;16.30;;;;;;;;;;5049240;28;20915;-63
2023/12/08 08:11:00;;;;;;;19.37;14.63;;;;;;;;;;5049443;28;20401;-63
2023/12/08 08:13:25;;;;;;;20.67;15.32;;;;;;;;;;5048432;28;20918;-64
2023/12/08 08:15:51;;;;;;;21.20;15.57;;;;;;;;;;5049335;28;20417;-64
2023/12/08 08:18:16;;;;;;;21.53;15.97;;;;;;;;;;5048878;28;20408;-63
2023/12/08 08:20:41;;;;;;;20.80;15.23;;;;;;;;;;5048654;28;20397;-64
2023/12/08 08:23:07;;;;;;;20.30;15.07;;;;;;;;;;5049037;28;20968;-63
2023/12/08 08:25:32;;;;;;;24.90;17.03;;;;;;;;;;5049473;28;20971;-63
2023/12/08 08:28:00;;;;;;;21.55;15.25;;;;;;;;;;5047853;28;20390;-63
2023/12/08 08:30:26;;;;;;;25.60;16.98;;;;;;;;;;5048636;28;20875;-63
2023/12/08 08:32:51;;;;;;;25.45;17.50;;;;;;;;;;5049560;28;20389;-64
2023/12/08 08:35:16;;;;;;;23.20;16.67;;;;;;;;;;5033194;28;20401;-63
2023/12/08 08:37:42;;;;;;;25.50;17.63;;;;;;;;;;5055807;28;20399;-63
2023/12/08 08:40:07;;;;;;;25.50;17.07;;;;;;;;;;5055498;28;21056;-63
2023/12/08 08:42:33;;;;;;;26.80;18.03;;;;;;;;;;5054491;28;20398;-63
2023/12/08 08:44:58;;;;;;;23.92;15.13;;;;;;;;;;5055836;28;20914;-64
2023/12/08 08:47:24;;;;;;;24.77;16.70;;;;;;;;;;5055807;28;20393;-65
2023/12/08 08:49:49;;;;;;;29.47;18.30;;;;;;;;;;5055333;28;20433;-64
2023/12/08 08:52:15;;;;;;;27.67;18.30;;;;;;;;;;5055501;28;20486;-64
2023/12/08 08:54:40;;;;;;;23.20;15.80;;;;;;;;;;5055792;28;20765;-64
2023/12/08 08:57:05;;;;;;;26.10;16.97;;;;;;;;;;5054432;28;20401;-64
2023/12/08 08:59:31;;;;;;;24.97;17.50;;;;;;;;;;5055594;28;20427;-64
2023/12/08 09:01:56;;;;;;;26.47;18.43;;;;;;;;;;5032536;28;20401;-64
2023/12/08 09:04:22;;;;;;;27.10;18.03;;;;;;;;;;5054789;28;20872;-64
2023/12/08 09:06:47;;;;;;;26.73;17.77;;;;;;;;;;5056079;28;20502;-64
2023/12/08 09:09:12;;;;;;;27.47;17.97;;;;;;;;;;5055615;28;20401;-64
2023/12/08 09:11:38;;;;;;;22.93;15.77;;;;;;;;;;5055175;28;20401;-64
2023/12/08 09:14:04;;;;;;;24.73;16.85;;;;;;;;;;5055596;28;20799;-64
2023/12/08 09:16:29;;;;;;;27.13;17.70;;;;;;;;;;5054793;28;20421;-64
2023/12/08 09:18:54;;;;;;;23.90;16.50;;;;;;;;;;5056036;28;20427;-64
2023/12/08 09:21:19;;;;;;;24.13;16.53;;;;;;;;;;5063291;28;20402;-63
2023/12/08 09:23:45;;;;;;;26.97;17.17;;;;;;;;;;5074895;28;20893;-64
2023/12/08 09:26:10;;;;;;;22.23;16.47;;;;;;;;;;5075616;28;20889;-64
2023/12/08 09:28:36;;;;;;;24.40;16.10;;;;;;;;;;5075849;28;20484;-64
2023/12/08 09:31:01;;;;;;;20.63;15.00;;;;;;;;;;5074606;28;20396;-64
2023/12/08 09:33:27;;;;;;;24.37;16.43;;;;;;;;;;5075790;28;20400;-64
2023/12/08 09:35:52;;;;;;;23.58;16.33;;;;;;;;;;5071709;28;20397;-64
2023/12/08 09:38:18;;;;;;;22.50;15.80;;;;;;;;;;5054536;28;20397;-64
2023/12/08 09:40:44;;;;;;;19.75;14.60;;;;;;;;;;5021707;28;20484;-63
2023/12/08 09:43:14;;;;;;;22.23;16.25;;;;;;;;;;5054961;28;20399;-63
2023/12/08 09:45:39;;;;;;;23.02;16.50;;;;;;;;;;5054655;28;20393;-64
2023/12/08 09:48:06;;;;;;;23.97;16.77;;;;;;;;;;5034175;28;20408;-63
2023/12/08 09:50:31;;;;;;;21.05;15.43;;;;;;;;;;5052651;28;20393;-63
2023/12/08 09:52:56;;;;;;;21.60;15.07;;;;;;;;;;5051939;28;20760;-63
2023/12/08 09:55:22;;;;;;;22.27;15.10;;;;;;;;;;5052100;28;20461;-64
2023/12/08 09:57:48;;;;;;;20.83;14.93;;;;;;;;;;5052253;28;20535;-63
2023/12/08 10:00:15;;;;;;;21.40;14.30;;;;;;;;;;5051337;28;20408;-64
2023/12/08 10:02:41;;;;;;;23.10;15.77;;;;;;;;;;5052139;28;20488;-64
2023/12/08 10:05:07;;;;;;;23.80;15.30;;;;;;;;;;5051954;28;20430;-63
2023/12/08 10:07:32;;;;;;;20.23;14.45;;;;;;;;;;5051134;28;20398;-64
2023/12/08 10:09:58;;;;;;;20.80;14.63;;;;;;;;;;5032348;28;20500;-64
2023/12/08 10:12:24;;;;;;;20.63;14.73;;;;;;;;;;5051763;28;20409;-63
2023/12/08 10:14:52;;;;;;;23.77;15.65;;;;;;;;;;5051224;28;20432;-63
2023/12/08 10:17:19;;;;;;;20.63;14.05;;;;;;;;;;5051379;28;20908;-64
2023/12/08 10:19:44;;;;;;;22.05;15.10;;;;;;;;;;5051271;28;20804;-64
2023/12/08 10:22:09;;;;;;;22.50;15.23;;;;;;;;;;5051691;28;20410;-64
2023/12/08 10:24:35;;;;;;;24.80;16.47;;;;;;;;;;5052222;28;20396;-63
2023/12/08 10:27:00;;;;;;;24.23;15.77;;;;;;;;;;5050862;28;20413;-63
2023/12/08 10:29:30;;;;;;;23.02;15.32;;;;;;;;;;5051337;28;20413;-63
2023/12/08 10:31:56;;;;;;;22.50;15.38;;;;;;;;;;5051357;28;20401;-63
2023/12/08 10:34:22;;;;;;;22.73;15.15;;;;;;;;;;5050520;28;20393;-63
2023/12/08 10:36:48;;;;;;;29.50;17.87;;;;;;;;;;5051440;28;20400;-63
2023/12/08 10:39:13;;;;;;;25.42;16.75;;;;;;;;;;5051055;28;20451;-63
2023/12/08 10:41:38;;;;;;;25.67;16.63;;;;;;;;;;5033084;28;20493;-63
2023/12/08 10:44:04;;;;;;;24.97;16.30;;;;;;;;;;5033238;28;20428;-64
2023/12/08 10:46:31;;;;;;;27.07;17.10;;;;;;;;;;5031257;28;20393;-64
2023/12/08 10:48:56;;;;;;;33.65;18.13;;;;;;;;;;5048582;28;20904;-63
2023/12/08 10:51:22;;;;;;;31.20;18.13;;;;;;;;;;5050919;28;20389;-63
2023/12/08 10:53:47;;;;;;;26.70;17.37;;;;;;;;;;5013670;28;20502;-62
2023/12/08 10:56:13;;;;;;;29.13;18.23;;;;;;;;;;5032360;28;20428;-63
2023/12/08 10:58:40;;;;;;;27.27;17.15;;;;;;;;;;5050095;28;20398;-63
2023/12/08 11:01:06;;;;;;;26.88;16.85;;;;;;;;;;5038987;28;20451;-63
2023/12/08 11:03:33;;;;;;;34.22;19.52;;;;;;;;;;5031924;28;20788;-63
2023/12/08 11:05:59;;;;;;;36.13;20.00;;;;;;;;;;5026593;28;20406;-63
2023/12/08 11:08:24;;;;;;;33.00;19.27;;;;;;;;;;5007642;28;20514;-63
2023/12/08 11:10:52;;;;;;;33.70;19.90;;;;;;;;;;5025876;28;20409;-63
2023/12/08 11:13:17;;;;;;;35.22;20.33;;;;;;;;;;5007160;28;20401;-63
2023/12/08 11:15:43;;;;;;;32.80;19.50;;;;;;;;;;5024928;28;20415;-63
2023/12/08 11:18:15;;;;;;;34.75;20.52;;;;;;;;;;5012483;28;20488;-63
2023/12/08 11:20:40;;;;;;;31.23;18.25;;;;;;;;;;5044922;28;20748;-63
2023/12/08 11:23:05;;;;;;;33.30;20.00;;;;;;;;;;5043210;28;20405;-63
2023/12/08 11:25:33;;;;;;;37.80;20.90;;;;;;;;;;5044591;28;20405;-63
2023/12/08 11:28:02;;;;;;;42.67;22.30;;;;;;;;;;5044180;28;20401;-63
2023/12/08 11:30:29;;;;;;;44.88;23.23;;;;;;;;;;5024988;28;20818;-63
2023/12/08 11:33:01;;;;;;;37.78;21.13;;;;;;;;;;5026704;28;20400;-63
2023/12/08 11:35:28;;;;;;;42.42;23.00;;;;;;;;;;5035112;28;21101;-63
2023/12/08 11:37:53;;;;;;;45.20;22.67;;;;;;;;;;5025419;28;20766;-63
2023/12/08 11:40:19;;;;;;;49.30;24.97;;;;;;;;;;5025737;28;21023;-63
2023/12/08 11:42:45;;;;;;;40.13;21.55;;;;;;;;;;5025693;28;20414;-63
2023/12/08 11:45:10;;;;;;;42.25;22.58;;;;;;;;;;5023331;28;20395;-63
2023/12/08 11:47:36;;;;;;;47.27;22.93;;;;;;;;;;5024914;28;20414;-63
2023/12/08 11:50:01;;;;;;;43.73;23.47;;;;;;;;;;5023912;28;20491;-64
2023/12/08 11:52:27;;;;;;;45.30;24.53;;;;;;;;;;5024036;28;20801;-63
2023/12/08 11:55:12;;;;;;;44.17;24.20;;;;;;;;;;5025892;28;20411;-62
2023/12/08 11:57:41;;;;;;;45.67;24.30;;;;;;;;;;5025420;28;20399;-62
2023/12/08 12:00:09;;;;;;;43.63;23.70;;;;;;;;;;5024514;28;20454;-63
2023/12/08 12:02:34;;;;;;;45.13;23.60;;;;;;;;;;5025236;28;20405;-63
2023/12/08 12:05:00;;;;;;;47.43;24.53;;;;;;;;;;5024323;28;20399;-63
2023/12/08 12:07:25;;;;;;;53.70;26.27;;;;;;;;;;5023080;28;20938;-63
2023/12/08 12:09:51;;;;;;;42.97;23.83;;;;;;;;;;5023552;28;20929;-63
2023/12/08 12:12:19;;;;;;;53.43;25.93;;;;;;;;;;5004467;28;20394;-63
2023/12/08 12:14:46;;;;;;;45.00;23.33;;;;;;;;;;5024499;28;20407;-63
2023/12/08 12:17:11;;;;;;;50.78;25.27;;;;;;;;;;5023377;28;20403;-63
2023/12/08 12:19:37;;;;;;;51.57;26.00;;;;;;;;;;5023128;28;20406;-62
2023/12/08 12:22:03;;;;;;;59.40;27.83;;;;;;;;;;5023925;28;20477;-62
2023/12/08 12:24:29;;;;;;;52.38;26.35;;;;;;;;;;5024984;28;20410;-64
2023/12/08 12:26:54;;;;;;;52.85;27.42;;;;;;;;;;5023330;28;20407;-64
2023/12/08 12:29:20;;;;;;;56.37;28.20;;;;;;;;;;5023407;28;20886;-64
2023/12/08 12:31:46;;;;;;;57.07;28.30;;;;;;;;;;5024065;28;20921;-64
2023/12/08 12:34:11;;;;;;;53.28;27.73;;;;;;;;;;5021839;28;20457;-64
2023/12/08 12:36:37;;;;;;;53.72;28.05;;;;;;;;;;5024186;28;21128;-64
2023/12/08 12:39:03;;;;;;;59.13;28.87;;;;;;;;;;5024558;28;20407;-64
2023/12/08 12:41:29;;;;;;;64.68;28.85;;;;;;;;;;5023696;28;20406;-64
2023/12/08 12:43:55;;;;;;;52.33;27.43;;;;;;;;;;5024046;28;20472;-63
2023/12/08 12:46:21;;;;;;;57.30;28.65;;;;;;;;;;5023367;28;20421;-64
2023/12/08 12:48:47;;;;;;;50.77;25.67;;;;;;;;;;5022761;28;20423;-63
2023/12/08 12:51:14;;;;;;;50.08;26.77;;;;;;;;;;5022917;28;20407;-63
2023/12/08 12:53:44;;;;;;;54.38;26.27;;;;;;;;;;5023751;28;20395;-63
2023/12/08 12:56:09;;;;;;;54.88;27.33;;;;;;;;;;5023434;28;20754;-63
2023/12/08 12:58:34;;;;;;;42.70;23.23;;;;;;;;;;5025418;28;20957;-63
2023/12/08 13:01:02;;;;;;;47.07;22.90;;;;;;;;;;5002981;28;20932;-63
2023/12/08 13:03:28;;;;;;;49.58;23.13;;;;;;;;;;5007689;28;20403;-63
2023/12/08 13:05:55;;;;;;;54.13;24.67;;;;;;;;;;5016582;28;20408;-63
2023/12/08 13:08:20;;;;;;;45.47;22.27;;;;;;;;;;5003680;28;20433;-64
2023/12/08 13:10:46;;;;;;;49.40;23.83;;;;;;;;;;5002311;28;20427;-64
2023/12/08 13:13:12;;;;;;;41.63;22.50;;;;;;;;;;5003170;28;20421;-63
2023/12/08 13:15:37;;;;;;;41.08;21.83;;;;;;;;;;5002500;28;20409;-63
2023/12/08 13:18:04;;;;;;;70.97;25.37;;;;;;;;;;5010641;28;20416;-63
2023/12/08 13:20:29;;;;;;;44.65;21.13;;;;;;;;;;5003772;28;20407;-63
2023/12/08 13:22:54;;;;;;;40.00;19.87;;;;;;;;;;5017874;28;20411;-63
2023/12/08 13:25:20;;;;;;;62.85;25.00;;;;;;;;;;5034372;28;20395;-62
2023/12/08 13:27:45;;;;;;;46.47;21.00;;;;;;;;;;5021180;28;20399;-62
2023/12/08 13:30:11;;;;;;;41.27;21.03;;;;;;;;;;5025269;28;20477;-62
2023/12/08 13:32:36;;;;;;;46.53;21.02;;;;;;;;;;5027081;28;20430;-62
2023/12/08 13:35:01;;;;;;;44.40;21.47;;;;;;;;;;5026730;28;20407;-62
2023/12/08 13:37:28;;;;;;;54.37;23.80;;;;;;;;;;5027027;28;20395;-62
2023/12/08 13:39:53;;;;;;;56.90;22.87;;;;;;;;;;5009639;28;20410;-62
2023/12/08 13:42:18;;;;;;;42.15;19.83;;;;;;;;;;5026331;28;20395;-62
2023/12/08 13:44:44;;;;;;;43.10;21.83;;;;;;;;;;5026898;28;20407;-62
2023/12/08 13:47:09;;;;;;;41.53;20.90;;;;;;;;;;5025982;28;20976;-62
2023/12/08 13:49:34;;;;;;;46.27;21.17;;;;;;;;;;5026677;28;20460;-62
2023/12/08 13:52:00;;;;;;;39.63;19.40;;;;;;;;;;5025617;28;20460;-62
2023/12/08 13:54:25;;;;;;;39.13;19.20;;;;;;;;;;5026350;28;20387;-62
2023/12/08 13:56:50;;;;;;;47.67;20.57;;;;;;;;;;5026725;28;20413;-62
2023/12/08 13:59:15;;;;;;;40.33;19.50;;;;;;;;;;5025079;28;20824;-62
2023/12/08 14:01:41;;;;;;;41.60;20.10;;;;;;;;;;5026599;28;20399;-62
2023/12/08 14:04:06;;;;;;;38.40;19.07;;;;;;;;;;5024716;28;20439;-62
2023/12/08 14:06:32;;;;;;;35.63;18.53;;;;;;;;;;5025716;28;20403;-62
2023/12/08 14:08:57;;;;;;;58.30;22.50;;;;;;;;;;5028869;28;20441;-62
2023/12/08 14:11:24;;;;;;;41.03;19.17;;;;;;;;;;5038836;28;20399;-63